Time;durP1;ratioP1;P1;durP2;ratioP2;P2;SDS_P1;SDS_P2;PMS_P1;PMS_P2;Temp;Humidity;BMP_temperature;BMP_pressure;BME280_temperature;BME280_humidity;BME280_pressure;Samples;Min_cycle;Max_cycle;Signal;HPM_P1;HPM_P2
2022/01/20 00:04:16;;;;;;;27.13;5.30;;;;;;;;;;4997022;28;20528;-59
2022/01/20 00:09:23;;;;;;;28.05;5.10;;;;;;;;;;5002962;28;20044;-59
2022/01/20 00:28:16;;;;;;;27.02;3.20;;;;;;;;;;5005931;28;20048;-59
2022/01/20 00:30:58;;;;;;;13.10;3.10;;;;;;;;;;5003079;28;20624;-59
2022/01/20 00:33:43;;;;;;;11.45;2.42;;;;;;;;;;5002072;28;20048;-59
2022/01/20 00:38:39;;;;;;;23.33;4.53;;;;;;;;;;5003980;28;20030;-59
2022/01/20 00:41:05;;;;;;;22.08;3.28;;;;;;;;;;5004586;28;20030;-59
2022/01/20 00:43:31;;;;;;;26.85;3.42;;;;;;;;;;5001546;28;20424;-60
2022/01/20 00:45:57;;;;;;;33.60;4.85;;;;;;;;;;5004654;28;20048;-59
2022/01/20 00:48:23;;;;;;;18.15;2.95;;;;;;;;;;5003228;28;20041;-59
2022/01/20 00:50:49;;;;;;;16.08;2.90;;;;;;;;;;5006020;28;20050;-59
2022/01/20 00:53:15;;;;;;;22.55;3.50;;;;;;;;;;5004803;28;20434;-59
2022/01/20 00:55:41;;;;;;;18.77;2.95;;;;;;;;;;5004840;28;20037;-59
2022/01/20 00:58:07;;;;;;;19.20;3.72;;;;;;;;;;5005139;28;20034;-59
2022/01/20 01:00:33;;;;;;;14.93;3.60;;;;;;;;;;4999596;28;20117;-60
2022/01/20 01:02:59;;;;;;;19.10;3.47;;;;;;;;;;5004353;28;20033;-59
2022/01/20 01:05:26;;;;;;;16.10;3.55;;;;;;;;;;5001639;28;20033;-59
2022/01/20 01:07:54;;;;;;;18.35;2.97;;;;;;;;;;5005702;28;20548;-59
2022/01/20 01:10:24;;;;;;;24.17;4.57;;;;;;;;;;5001826;28;20036;-59
2022/01/20 01:13:05;;;;;;;14.63;3.08;;;;;;;;;;5001288;28;20173;-59
2022/01/20 01:15:39;;;;;;;26.42;2.83;;;;;;;;;;5001785;28;20660;-58
2022/01/20 01:23:38;;;;;;;18.98;3.35;;;;;;;;;;5000406;28;20030;-59
2022/01/20 01:26:10;;;;;;;10.48;2.47;;;;;;;;;;5001428;28;20030;-59
2022/01/20 01:28:37;;;;;;;17.17;2.95;;;;;;;;;;4998582;28;20041;-59
2022/01/20 01:33:56;;;;;;;10.48;2.70;;;;;;;;;;5003185;28;20032;-59
2022/01/20 01:36:24;;;;;;;9.38;2.70;;;;;;;;;;5000829;28;20052;-59
2022/01/20 01:38:50;;;;;;;15.02;3.97;;;;;;;;;;5004232;28;20043;-59
2022/01/20 01:41:32;;;;;;;24.13;3.38;;;;;;;;;;5000563;28;20056;-59
2022/01/20 01:44:01;;;;;;;18.80;3.33;;;;;;;;;;5003600;28;20333;-59
2022/01/20 01:46:27;;;;;;;27.33;4.97;;;;;;;;;;5001056;28;20381;-59
2022/01/20 01:48:52;;;;;;;14.43;3.60;;;;;;;;;;5001818;28;20049;-59
2022/01/20 01:51:18;;;;;;;24.05;3.88;;;;;;;;;;5002916;28;20311;-59
2022/01/20 01:53:44;;;;;;;25.60;3.25;;;;;;;;;;4984990;28;20025;-59
2022/01/20 01:56:09;;;;;;;20.15;3.53;;;;;;;;;;5004065;28;20030;-59
2022/01/20 01:58:35;;;;;;;21.77;4.35;;;;;;;;;;5003996;28;20541;-59
2022/01/20 02:01:01;;;;;;;18.42;3.97;;;;;;;;;;5001225;28;20512;-59
2022/01/20 02:03:28;;;;;;;24.83;3.47;;;;;;;;;;4986209;28;20054;-59
2022/01/20 02:19:23;;;;;;;29.35;4.15;;;;;;;;;;5003194;28;20080;-59
2022/01/20 02:21:51;;;;;;;15.48;3.80;;;;;;;;;;4982042;28;20496;-59
2022/01/20 02:24:18;;;;;;;17.75;3.45;;;;;;;;;;5001096;28;20171;-59
2022/01/20 02:26:44;;;;;;;34.92;5.32;;;;;;;;;;5000259;28;20029;-60
2022/01/20 02:29:10;;;;;;;21.08;3.50;;;;;;;;;;5000876;28;20029;-60
2022/01/20 02:31:36;;;;;;;23.13;4.60;;;;;;;;;;5000708;28;20022;-59
2022/01/20 02:34:01;;;;;;;21.25;3.90;;;;;;;;;;5000458;28;20444;-59
2022/01/20 02:36:28;;;;;;;28.15;3.33;;;;;;;;;;4986696;28;20041;-59
2022/01/20 02:39:04;;;;;;;11.23;3.45;;;;;;;;;;5000559;28;20597;-59
2022/01/20 02:46:57;;;;;;;16.70;2.20;;;;;;;;;;5001250;28;20535;-59
2022/01/20 02:49:23;;;;;;;19.00;3.45;;;;;;;;;;4997908;28;20026;-59
2022/01/20 02:51:54;;;;;;;17.23;4.22;;;;;;;;;;5001839;28;20053;-59
2022/01/20 02:54:20;;;;;;;20.08;2.75;;;;;;;;;;5001986;28;20576;-59
2022/01/20 02:56:46;;;;;;;19.25;3.55;;;;;;;;;;4984980;28;20485;-59
2022/01/20 02:59:12;;;;;;;21.52;2.97;;;;;;;;;;5000559;28;20040;-59
2022/01/20 03:01:38;;;;;;;18.25;3.17;;;;;;;;;;4996714;28;20025;-59
2022/01/20 03:04:03;;;;;;;23.42;4.22;;;;;;;;;;5001820;28;20514;-59
2022/01/20 03:06:29;;;;;;;3.97;1.58;;;;;;;;;;5002623;28;20038;-59
2022/01/20 03:08:55;;;;;;;13.60;2.80;;;;;;;;;;5002721;28;20025;-59
2022/01/20 03:11:21;;;;;;;16.27;3.17;;;;;;;;;;5000071;28;20386;-58
2022/01/20 03:13:46;;;;;;;31.88;4.18;;;;;;;;;;5002233;28;20062;-58
2022/01/20 03:16:12;;;;;;;17.40;3.50;;;;;;;;;;4999594;28;20572;-59
2022/01/20 03:18:37;;;;;;;15.45;3.10;;;;;;;;;;5003057;28;20041;-59
2022/01/20 03:21:03;;;;;;;17.38;3.42;;;;;;;;;;5005338;28;20018;-59
2022/01/20 03:23:28;;;;;;;19.98;3.10;;;;;;;;;;4998985;28;20109;-61
2022/01/20 03:25:54;;;;;;;11.75;2.33;;;;;;;;;;4995740;28;20030;-59
2022/01/20 03:28:19;;;;;;;22.25;3.58;;;;;;;;;;4998250;28;20042;-59
2022/01/20 03:30:45;;;;;;;26.35;3.92;;;;;;;;;;4998102;28;20050;-58
2022/01/20 03:33:11;;;;;;;17.60;3.03;;;;;;;;;;5001687;28;20180;-59
2022/01/20 03:35:36;;;;;;;27.02;4.07;;;;;;;;;;5000261;28;20293;-58
2022/01/20 03:38:02;;;;;;;26.38;2.95;;;;;;;;;;5001907;28;20164;-59
2022/01/20 03:40:28;;;;;;;14.40;3.38;;;;;;;;;;4999406;28;20041;-59
2022/01/20 03:42:53;;;;;;;20.27;3.10;;;;;;;;;;4978862;28;20062;-59
2022/01/20 03:45:19;;;;;;;27.52;3.40;;;;;;;;;;5000824;28;20030;-58
2022/01/20 03:47:45;;;;;;;20.15;2.95;;;;;;;;;;4996728;28;20023;-58
2022/01/20 03:50:59;;;;;;;9.65;1.55;;;;;;;;;;5000543;28;20034;-58
2022/01/20 03:52:56;;;;;;;14.38;2.45;;;;;;;;;;5000869;28;20042;-59
2022/01/20 03:55:21;;;;;;;15.63;2.83;;;;;;;;;;5003037;28;20054;-59
2022/01/20 03:57:47;;;;;;;32.30;3.33;;;;;;;;;;4996411;28;20041;-59
2022/01/20 04:00:13;;;;;;;15.10;3.08;;;;;;;;;;5001187;28;20036;-59
2022/01/20 04:02:39;;;;;;;9.25;2.20;;;;;;;;;;4998029;28;20026;-59
2022/01/20 04:05:05;;;;;;;17.08;2.80;;;;;;;;;;4997601;28;20504;-59
2022/01/20 04:07:30;;;;;;;24.65;3.58;;;;;;;;;;4980921;28;20041;-59
2022/01/20 04:09:55;;;;;;;25.13;3.95;;;;;;;;;;4981516;28;20378;-59
2022/01/20 04:12:21;;;;;;;17.13;4.45;;;;;;;;;;4998028;28;20484;-59
2022/01/20 04:14:48;;;;;;;13.38;2.50;;;;;;;;;;5000187;28;20030;-58
2022/01/20 04:17:20;;;;;;;16.35;2.63;;;;;;;;;;4993530;28;20129;-60
2022/01/20 04:19:46;;;;;;;12.80;2.30;;;;;;;;;;4998337;28;20064;-59
2022/01/20 04:22:12;;;;;;;15.30;3.42;;;;;;;;;;4997179;28;20030;-58
2022/01/20 04:24:38;;;;;;;16.10;3.10;;;;;;;;;;4996318;28;20030;-59
2022/01/20 04:27:04;;;;;;;21.65;3.63;;;;;;;;;;4995906;28;20057;-59
2022/01/20 04:29:30;;;;;;;18.42;3.40;;;;;;;;;;4998784;28;20038;-60
2022/01/20 04:31:55;;;;;;;26.98;2.88;;;;;;;;;;4999314;28;20045;-61
2022/01/20 04:34:22;;;;;;;15.10;2.22;;;;;;;;;;5001619;28;20796;-61
2022/01/20 04:36:50;;;;;;;20.45;2.90;;;;;;;;;;5001353;28;20104;-61
2022/01/20 04:39:20;;;;;;;17.20;2.63;;;;;;;;;;4997459;28;20030;-60
2022/01/20 04:41:46;;;;;;;16.55;3.13;;;;;;;;;;4999065;28;20032;-61
2022/01/20 04:44:18;;;;;;;19.02;2.90;;;;;;;;;;4999163;28;20037;-61
2022/01/20 04:46:53;;;;;;;35.53;4.20;;;;;;;;;;5000878;28;20025;-61
2022/01/20 04:57:31;;;;;;;22.50;2.40;;;;;;;;;;4997901;28;20083;-59
2022/01/20 04:59:56;;;;;;;18.75;3.13;;;;;;;;;;5002284;28;20045;-60
2022/01/20 05:02:26;;;;;;;29.67;3.13;;;;;;;;;;5004086;28;20160;-60
2022/01/20 05:04:52;;;;;;;22.73;3.58;;;;;;;;;;5001787;28;20682;-60
2022/01/20 05:07:22;;;;;;;16.40;3.00;;;;;;;;;;5001261;28;20061;-60
2022/01/20 05:09:48;;;;;;;27.95;3.22;;;;;;;;;;5003639;28;20030;-59
2022/01/20 05:12:18;;;;;;;31.67;3.85;;;;;;;;;;5005368;28;20089;-59
2022/01/20 05:14:43;;;;;;;15.57;3.40;;;;;;;;;;4999079;28;20034;-60
2022/01/20 05:17:09;;;;;;;49.47;3.30;;;;;;;;;;5004175;28;20091;-59
2022/01/20 05:19:34;;;;;;;27.02;3.35;;;;;;;;;;5002606;28;20040;-60
2022/01/20 05:22:01;;;;;;;32.83;3.42;;;;;;;;;;5006746;28;20040;-61
2022/01/20 05:24:26;;;;;;;17.20;3.45;;;;;;;;;;5008482;28;20030;-60
2022/01/20 05:26:54;;;;;;;24.58;4.07;;;;;;;;;;4983475;28;20045;-60
2022/01/20 05:29:21;;;;;;;32.25;5.40;;;;;;;;;;5000801;28;20397;-60
2022/01/20 05:31:47;;;;;;;26.05;3.47;;;;;;;;;;5000451;28;20062;-60
2022/01/20 05:34:13;;;;;;;26.67;3.05;;;;;;;;;;5003446;28;20141;-60
2022/01/20 05:36:38;;;;;;;21.83;3.40;;;;;;;;;;5005211;28;20037;-60
2022/01/20 05:39:04;;;;;;;18.00;3.67;;;;;;;;;;5001373;28;20164;-61
2022/01/20 05:41:30;;;;;;;8.30;2.55;;;;;;;;;;5000909;28;20116;-61
2022/01/20 05:43:56;;;;;;;25.95;4.05;;;;;;;;;;5002261;28;20477;-61
2022/01/20 05:46:25;;;;;;;18.02;3.45;;;;;;;;;;4999816;28;20057;-61
2022/01/20 05:48:56;;;;;;;15.23;2.70;;;;;;;;;;5003926;28;20057;-61
2022/01/20 05:51:21;;;;;;;37.00;4.00;;;;;;;;;;5003731;28;20619;-61
2022/01/20 05:53:47;;;;;;;31.50;3.30;;;;;;;;;;5005240;28;20042;-61
2022/01/20 05:56:12;;;;;;;13.80;3.47;;;;;;;;;;5003524;28;20037;-61
2022/01/20 05:58:38;;;;;;;32.45;3.28;;;;;;;;;;5000284;28;20049;-61
2022/01/20 06:01:05;;;;;;;29.92;3.63;;;;;;;;;;5004563;28;20401;-60
2022/01/20 06:03:36;;;;;;;17.70;2.78;;;;;;;;;;5001971;28;20120;-61
2022/01/20 06:06:07;;;;;;;41.60;3.70;;;;;;;;;;5002230;28;20544;-60
2022/01/20 06:08:35;;;;;;;19.83;3.63;;;;;;;;;;5000104;28;20482;-61
2022/01/20 06:11:00;;;;;;;34.35;5.50;;;;;;;;;;5002070;28;20057;-60
2022/01/20 06:13:27;;;;;;;17.77;3.17;;;;;;;;;;5002909;28;20076;-61
2022/01/20 06:15:52;;;;;;;24.50;3.40;;;;;;;;;;5002458;28;20132;-61
2022/01/20 06:18:19;;;;;;;20.38;3.40;;;;;;;;;;5001313;28;20121;-61
2022/01/20 06:20:45;;;;;;;24.35;3.45;;;;;;;;;;5003562;28;20031;-61
2022/01/20 06:23:12;;;;;;;31.92;3.42;;;;;;;;;;5001963;28;20050;-61
2022/01/20 06:25:37;;;;;;;24.52;2.65;;;;;;;;;;4998320;28;20030;-61
2022/01/20 06:28:04;;;;;;;21.00;2.88;;;;;;;;;;5001840;28;20199;-61
2022/01/20 06:30:32;;;;;;;29.65;4.15;;;;;;;;;;5006203;28;20065;-61
2022/01/20 06:32:58;;;;;;;28.65;3.67;;;;;;;;;;5001790;28;20831;-61
2022/01/20 06:35:24;;;;;;;36.13;4.05;;;;;;;;;;5004099;28;20417;-61
2022/01/20 06:37:50;;;;;;;26.50;4.25;;;;;;;;;;5000637;28;20180;-61
2022/01/20 06:40:15;;;;;;;34.13;3.35;;;;;;;;;;5001763;28;20167;-61
2022/01/20 06:42:41;;;;;;;26.58;4.22;;;;;;;;;;5000673;28;20033;-61
2022/01/20 06:45:10;;;;;;;32.35;3.88;;;;;;;;;;5004937;28;20033;-61
2022/01/20 06:47:36;;;;;;;23.48;3.92;;;;;;;;;;5001601;28;20034;-61
2022/01/20 06:50:03;;;;;;;19.50;3.05;;;;;;;;;;5003150;28;20045;-61
2022/01/20 06:52:28;;;;;;;21.92;3.70;;;;;;;;;;5003732;28;20095;-61
2022/01/20 06:54:54;;;;;;;21.42;3.20;;;;;;;;;;5001653;28;20050;-61
2022/01/20 06:57:20;;;;;;;35.53;4.63;;;;;;;;;;5004278;28;20045;-60
2022/01/20 06:59:46;;;;;;;29.00;4.30;;;;;;;;;;5005489;28;20069;-60
2022/01/20 07:02:11;;;;;;;28.85;5.15;;;;;;;;;;5001375;28;20513;-61
2022/01/20 07:04:38;;;;;;;26.92;4.45;;;;;;;;;;4999161;28;20060;-61
2022/01/20 07:07:04;;;;;;;22.30;3.80;;;;;;;;;;5001148;28;20030;-61
2022/01/20 07:09:31;;;;;;;34.40;5.15;;;;;;;;;;4999045;28;20034;-61
2022/01/20 07:11:57;;;;;;;24.33;3.20;;;;;;;;;;4985653;28;20046;-61
2022/01/20 07:14:23;;;;;;;19.45;3.38;;;;;;;;;;5003057;28;20397;-61
2022/01/20 07:16:48;;;;;;;27.88;3.03;;;;;;;;;;5004655;28;20029;-60
2022/01/20 07:19:14;;;;;;;29.17;4.00;;;;;;;;;;5000257;28;20104;-60
2022/01/20 07:21:40;;;;;;;21.58;4.22;;;;;;;;;;5000575;28;20497;-60
2022/01/20 07:24:07;;;;;;;23.00;3.60;;;;;;;;;;4984798;28;20026;-61
2022/01/20 07:26:32;;;;;;;17.35;2.85;;;;;;;;;;4981330;28;20088;-60
2022/01/20 07:28:58;;;;;;;27.42;2.78;;;;;;;;;;5000182;28;20030;-60
2022/01/20 07:31:24;;;;;;;35.58;5.28;;;;;;;;;;4997010;28;20109;-60
2022/01/20 07:33:50;;;;;;;34.15;4.93;;;;;;;;;;5000459;28;20059;-60
2022/01/20 07:36:16;;;;;;;24.42;4.40;;;;;;;;;;5002842;28;20038;-60
2022/01/20 07:38:42;;;;;;;34.80;5.88;;;;;;;;;;5001679;28;20492;-61
2022/01/20 07:41:07;;;;;;;23.17;5.07;;;;;;;;;;5003491;28;20034;-61
2022/01/20 07:43:33;;;;;;;30.55;6.20;;;;;;;;;;4996656;28;20437;-61
2022/01/20 07:45:58;;;;;;;23.05;4.72;;;;;;;;;;5002144;28;20164;-60
2022/01/20 07:48:24;;;;;;;27.88;6.35;;;;;;;;;;5000079;28;20037;-60
2022/01/20 07:50:49;;;;;;;34.05;5.32;;;;;;;;;;5003214;28;20812;-60
2022/01/20 07:53:15;;;;;;;31.00;4.97;;;;;;;;;;4989914;28;20579;-60
2022/01/20 07:55:41;;;;;;;36.30;5.45;;;;;;;;;;5000505;28;20033;-60
2022/01/20 07:58:06;;;;;;;20.45;5.05;;;;;;;;;;4981040;28;20116;-60
2022/01/20 08:00:32;;;;;;;34.08;5.45;;;;;;;;;;4999591;28;20030;-60
2022/01/20 08:02:58;;;;;;;26.67;4.35;;;;;;;;;;4997059;28;20062;-60
2022/01/20 08:05:24;;;;;;;44.35;5.53;;;;;;;;;;4999903;28;20037;-60
2022/01/20 08:07:49;;;;;;;38.50;6.13;;;;;;;;;;5000040;28;20552;-60
2022/01/20 08:10:15;;;;;;;25.52;4.40;;;;;;;;;;4998735;28;20183;-60
2022/01/20 08:12:43;;;;;;;40.58;6.22;;;;;;;;;;5003269;28;20178;-60
2022/01/20 08:15:12;;;;;;;38.10;4.80;;;;;;;;;;5001966;28;20041;-60
2022/01/20 08:17:38;;;;;;;21.90;3.53;;;;;;;;;;5000160;28;20026;-60
2022/01/20 08:20:04;;;;;;;29.20;3.92;;;;;;;;;;5000062;28;20033;-60
2022/01/20 08:22:34;;;;;;;42.70;6.00;;;;;;;;;;5002584;28;20084;-60
2022/01/20 08:25:10;;;;;;;39.08;6.90;;;;;;;;;;5004324;28;20029;-60
2022/01/20 08:27:39;;;;;;;37.30;5.53;;;;;;;;;;5004017;28;20034;-60
2022/01/20 08:30:11;;;;;;;32.55;6.95;;;;;;;;;;5002077;28;20026;-60
2022/01/20 08:32:37;;;;;;;37.45;6.40;;;;;;;;;;5001617;28;20026;-60
2022/01/20 08:35:06;;;;;;;35.38;5.40;;;;;;;;;;5004349;28;20565;-60
2022/01/20 08:37:33;;;;;;;28.67;4.15;;;;;;;;;;5004143;28;20045;-60
2022/01/20 08:40:04;;;;;;;27.05;4.40;;;;;;;;;;5001319;28;20045;-60
2022/01/20 08:42:30;;;;;;;35.53;5.50;;;;;;;;;;5003837;28;20404;-60
2022/01/20 08:44:56;;;;;;;26.73;4.90;;;;;;;;;;5006006;28;20290;-59
2022/01/20 08:47:21;;;;;;;24.48;4.80;;;;;;;;;;4999124;28;20042;-59
2022/01/20 08:49:49;;;;;;;39.30;4.55;;;;;;;;;;4998057;28;20038;-59
2022/01/20 08:52:16;;;;;;;34.67;5.53;;;;;;;;;;5001286;28;20034;-59
2022/01/20 08:54:45;;;;;;;34.25;5.22;;;;;;;;;;5000695;28;20030;-59
2022/01/20 08:57:10;;;;;;;30.95;5.28;;;;;;;;;;5003302;28;20441;-59
2022/01/20 08:59:40;;;;;;;51.65;6.72;;;;;;;;;;4997662;28;20111;-59
2022/01/20 09:02:06;;;;;;;23.70;3.53;;;;;;;;;;5002639;28;20394;-59
2022/01/20 09:04:32;;;;;;;41.75;6.60;;;;;;;;;;5002517;28;20013;-60
2022/01/20 09:06:58;;;;;;;42.45;5.65;;;;;;;;;;5001330;28;20042;-59
2022/01/20 09:09:23;;;;;;;29.63;5.53;;;;;;;;;;5003189;28;20037;-60
2022/01/20 09:12:02;;;;;;;21.23;4.80;;;;;;;;;;5004562;28;20041;-59
2022/01/20 09:17:12;;;;;;;34.35;4.68;;;;;;;;;;5009041;28;20095;-59
2022/01/20 09:19:38;;;;;;;29.95;4.00;;;;;;;;;;5006387;28;20045;-59
2022/01/20 09:22:05;;;;;;;50.83;6.88;;;;;;;;;;5004322;28;20026;-59
2022/01/20 09:24:31;;;;;;;38.17;4.78;;;;;;;;;;5004457;28;20033;-60
2022/01/20 09:26:56;;;;;;;29.52;5.32;;;;;;;;;;5005128;28;20587;-60
2022/01/20 09:29:22;;;;;;;39.20;4.75;;;;;;;;;;5001509;28;20424;-60
2022/01/20 09:31:50;;;;;;;26.67;3.85;;;;;;;;;;5003803;28;20034;-60
2022/01/20 09:34:16;;;;;;;40.88;5.40;;;;;;;;;;5004525;28;20041;-60
2022/01/20 09:36:42;;;;;;;26.95;4.03;;;;;;;;;;4996532;28;20030;-60
2022/01/20 09:39:08;;;;;;;37.35;5.78;;;;;;;;;;5002093;28;20177;-60
2022/01/20 09:41:33;;;;;;;36.75;5.20;;;;;;;;;;5000904;28;20053;-60
2022/01/20 09:43:59;;;;;;;38.72;4.63;;;;;;;;;;5000326;28;20405;-60
2022/01/20 09:46:25;;;;;;;17.02;3.22;;;;;;;;;;5004368;28;20054;-60
2022/01/20 09:48:51;;;;;;;24.67;3.97;;;;;;;;;;4998865;28;20568;-60
2022/01/20 09:51:16;;;;;;;14.75;3.40;;;;;;;;;;5003051;28;20033;-59
2022/01/20 09:53:42;;;;;;;43.15;5.53;;;;;;;;;;5002468;28;20117;-60
2022/01/20 09:56:08;;;;;;;28.23;3.88;;;;;;;;;;5004590;28;20503;-59
2022/01/20 09:58:33;;;;;;;35.28;5.15;;;;;;;;;;5001914;28;20022;-60
2022/01/20 10:00:59;;;;;;;33.40;4.82;;;;;;;;;;5001037;28;20040;-61
2022/01/20 10:03:27;;;;;;;41.85;5.88;;;;;;;;;;5001940;28;20092;-60
2022/01/20 10:05:53;;;;;;;26.77;4.70;;;;;;;;;;5003873;28;20044;-59
2022/01/20 10:08:26;;;;;;;32.08;4.10;;;;;;;;;;5001417;28;20053;-59
2022/01/20 10:10:58;;;;;;;;;;;;;;;;;;4997944;28;20037;-59
2022/01/20 10:13:27;;;;;;;52.83;7.45;;;;;;;;;;5000862;28;20112;-59
2022/01/20 10:16:14;;;;;;;27.25;5.28;;;;;;;;;;5002045;28;20042;-59
2022/01/20 10:18:51;;;;;;;46.88;6.35;;;;;;;;;;5002084;28;20033;-59
2022/01/20 10:21:25;;;;;;;26.25;4.28;;;;;;;;;;4998992;28;20575;-60
2022/01/20 10:23:51;;;;;;;35.33;6.25;;;;;;;;;;4998708;28;20033;-60
2022/01/20 10:26:19;;;;;;;34.42;4.90;;;;;;;;;;5003570;28;20374;-61
2022/01/20 10:28:48;;;;;;;26.88;4.18;;;;;;;;;;5000024;28;20049;-60
2022/01/20 10:31:15;;;;;;;25.02;5.18;;;;;;;;;;4996369;28;20577;-60
2022/01/20 10:33:44;;;;;;;42.40;7.10;;;;;;;;;;4999705;28;20535;-60
2022/01/20 10:36:11;;;;;;;37.17;5.25;;;;;;;;;;5002695;28;20032;-60
2022/01/20 10:38:36;;;;;;;26.08;4.35;;;;;;;;;;4998985;28;20022;-60
2022/01/20 10:41:04;;;;;;;37.10;5.47;;;;;;;;;;4999833;28;20080;-59
2022/01/20 10:43:34;;;;;;;39.08;4.35;;;;;;;;;;5002921;28;20037;-60
2022/01/20 10:46:10;;;;;;;33.92;5.63;;;;;;;;;;5001206;28;20112;-58
2022/01/20 10:48:36;;;;;;;30.02;5.57;;;;;;;;;;5001388;28;20025;-58
2022/01/20 10:51:02;;;;;;;33.75;5.30;;;;;;;;;;4998768;28;20034;-59
2022/01/20 10:53:28;;;;;;;26.50;5.28;;;;;;;;;;4980945;28;20100;-58
2022/01/20 10:56:05;;;;;;;20.25;5.65;;;;;;;;;;5001271;28;20069;-58
2022/01/20 10:58:31;;;;;;;33.67;6.10;;;;;;;;;;4997077;28;20489;-58
2022/01/20 11:00:57;;;;;;;36.00;4.43;;;;;;;;;;4999962;28;20048;-59
2022/01/20 11:03:27;;;;;;;38.10;5.38;;;;;;;;;;5000880;28;20044;-60
2022/01/20 11:05:56;;;;;;;28.00;4.72;;;;;;;;;;5000093;28;20250;-58
2022/01/20 11:08:22;;;;;;;31.50;4.57;;;;;;;;;;4999181;28;20030;-59
2022/01/20 11:10:50;;;;;;;35.88;5.55;;;;;;;;;;4999367;28;20038;-60
2022/01/20 11:13:17;;;;;;;30.67;4.40;;;;;;;;;;4999086;28;20022;-59
2022/01/20 11:15:43;;;;;;;31.23;4.38;;;;;;;;;;5001691;28;20037;-60
2022/01/20 11:18:10;;;;;;;27.80;5.15;;;;;;;;;;4997006;28;20108;-60
2022/01/20 11:20:44;;;;;;;28.98;5.15;;;;;;;;;;5000946;28;20033;-59
2022/01/20 11:23:10;;;;;;;32.78;6.00;;;;;;;;;;5001592;28;20557;-60
2022/01/20 11:25:39;;;;;;;30.30;5.18;;;;;;;;;;5001759;28;20033;-60
2022/01/20 11:28:09;;;;;;;35.38;5.78;;;;;;;;;;4999293;28;20132;-60
2022/01/20 11:30:42;;;;;;;44.13;4.60;;;;;;;;;;5000713;28;20563;-58
2022/01/20 11:33:15;;;;;;;37.30;7.00;;;;;;;;;;5000909;28;20256;-60
2022/01/20 11:35:56;;;;;;;21.42;4.93;;;;;;;;;;4993803;28;20022;-60
2022/01/20 11:38:36;;;;;;;26.70;5.05;;;;;;;;;;4999229;28;20063;-60
2022/01/20 11:41:02;;;;;;;43.35;6.38;;;;;;;;;;5002894;28;20224;-58
2022/01/20 11:43:43;;;;;;;45.38;6.82;;;;;;;;;;4997054;28;20037;-60
2022/01/20 11:46:20;;;;;;;27.75;5.35;;;;;;;;;;4999254;28;20037;-60
2022/01/20 11:49:02;;;;;;;33.25;5.72;;;;;;;;;;4996529;28;20104;-58
2022/01/20 11:51:42;;;;;;;39.13;5.57;;;;;;;;;;4999592;28;20091;-58
2022/01/20 11:54:09;;;;;;;37.25;5.88;;;;;;;;;;5002428;28;20034;-60
2022/01/20 11:56:37;;;;;;;37.60;7.05;;;;;;;;;;5000125;28;20084;-58
2022/01/20 11:59:05;;;;;;;40.05;5.53;;;;;;;;;;4995812;28;20404;-60
2022/01/20 12:01:44;;;;;;;32.20;5.97;;;;;;;;;;5003726;28;20723;-58
2022/01/20 12:04:10;;;;;;;44.00;8.35;;;;;;;;;;5006079;28;20033;-61
2022/01/20 12:06:44;;;;;;;36.33;7.55;;;;;;;;;;5000911;28;20038;-60
2022/01/20 12:09:11;;;;;;;34.30;6.10;;;;;;;;;;4999300;28;20042;-60
2022/01/20 12:11:42;;;;;;;31.92;7.00;;;;;;;;;;5006400;28;20049;-61
2022/01/20 12:14:08;;;;;;;30.23;7.47;;;;;;;;;;5006383;28;20405;-60
2022/01/20 12:16:35;;;;;;;34.30;6.25;;;;;;;;;;5003236;28;20084;-61
2022/01/20 12:19:02;;;;;;;39.53;7.85;;;;;;;;;;5005552;28;20058;-61
2022/01/20 12:21:30;;;;;;;31.92;6.65;;;;;;;;;;5003233;28;20028;-61
2022/01/20 12:23:57;;;;;;;33.55;6.88;;;;;;;;;;5001975;28;20048;-60
2022/01/20 12:26:23;;;;;;;26.52;5.93;;;;;;;;;;5001450;28;20083;-61
2022/01/20 12:29:00;;;;;;;30.85;6.50;;;;;;;;;;5001668;28;20447;-62
2022/01/20 12:31:25;;;;;;;38.80;5.18;;;;;;;;;;5003512;28;20025;-61
2022/01/20 12:33:53;;;;;;;43.35;7.25;;;;;;;;;;5005282;28;20038;-60
2022/01/20 12:36:19;;;;;;;56.33;8.77;;;;;;;;;;5001052;28;20121;-60
2022/01/20 12:38:47;;;;;;;35.78;6.45;;;;;;;;;;5004113;28;20504;-60
2022/01/20 12:41:17;;;;;;;39.45;7.47;;;;;;;;;;5004991;28;20025;-60
2022/01/20 12:43:47;;;;;;;31.35;6.00;;;;;;;;;;5002216;28;20045;-61
2022/01/20 12:46:19;;;;;;;36.40;6.50;;;;;;;;;;5001724;28;20029;-61
2022/01/20 12:49:05;;;;;;;39.17;5.00;;;;;;;;;;4999991;28;20030;-61
2022/01/20 12:51:35;;;;;;;27.73;5.32;;;;;;;;;;5003764;28;20034;-61
2022/01/20 12:54:05;;;;;;;36.40;6.30;;;;;;;;;;5002390;28;20428;-61
2022/01/20 12:56:33;;;;;;;36.42;7.50;;;;;;;;;;5004255;28;20782;-61
2022/01/20 12:58:59;;;;;;;37.80;6.68;;;;;;;;;;4999122;28;20025;-61
2022/01/20 13:01:25;;;;;;;33.33;7.38;;;;;;;;;;5004869;28;20372;-61
2022/01/20 13:03:51;;;;;;;38.30;7.50;;;;;;;;;;5004171;28;20033;-61
2022/01/20 13:06:24;;;;;;;38.15;6.88;;;;;;;;;;5006615;28;20635;-61
2022/01/20 13:09:07;;;;;;;45.85;7.95;;;;;;;;;;5003818;28;20033;-61
2022/01/20 13:11:44;;;;;;;35.90;7.10;;;;;;;;;;5003230;28;20540;-61
2022/01/20 13:14:11;;;;;;;56.25;8.50;;;;;;;;;;4999042;28;20077;-61
2022/01/20 13:16:37;;;;;;;26.83;5.95;;;;;;;;;;5004102;28;20027;-61
2022/01/20 13:19:06;;;;;;;36.83;7.50;;;;;;;;;;4998759;28;20038;-61
2022/01/20 13:21:44;;;;;;;27.42;6.45;;;;;;;;;;5002773;28;20117;-60
2022/01/20 13:24:12;;;;;;;31.85;7.13;;;;;;;;;;5006689;28;20113;-60
2022/01/20 13:26:50;;;;;;;50.55;7.78;;;;;;;;;;4998837;28;20034;-61
2022/01/20 13:29:16;;;;;;;31.60;6.20;;;;;;;;;;5002954;28;20029;-60
2022/01/20 13:31:42;;;;;;;34.00;6.70;;;;;;;;;;5000195;28;20030;-61
2022/01/20 13:34:09;;;;;;;33.97;5.63;;;;;;;;;;5002934;28;20390;-60
2022/01/20 13:36:40;;;;;;;49.05;7.63;;;;;;;;;;5003866;28;20033;-61
2022/01/20 13:39:06;;;;;;;32.85;7.63;;;;;;;;;;5001610;28;20030;-61
2022/01/20 13:41:32;;;;;;;49.17;8.38;;;;;;;;;;5002660;28;20022;-60
2022/01/20 13:46:47;;;;;;;71.60;11.40;;;;;;;;;;4999773;28;20084;-60
2022/01/20 13:49:18;;;;;;;50.45;11.00;;;;;;;;;;4996504;28;20034;-61
2022/01/20 13:51:45;;;;;;;36.47;9.48;;;;;;;;;;5003559;28;20053;-61
2022/01/20 13:54:11;;;;;;;37.25;6.90;;;;;;;;;;5000009;28;20072;-60
2022/01/20 13:56:37;;;;;;;38.97;7.55;;;;;;;;;;5002493;28;20065;-61
2022/01/20 13:59:09;;;;;;;34.35;7.45;;;;;;;;;;5001735;28;20083;-60
2022/01/20 14:01:34;;;;;;;31.10;7.60;;;;;;;;;;4998641;28;20097;-58
2022/01/20 14:04:01;;;;;;;37.35;6.47;;;;;;;;;;5001186;28;20121;-58
2022/01/20 14:06:27;;;;;;;33.00;6.18;;;;;;;;;;5002694;28;20036;-61
2022/01/20 14:08:54;;;;;;;31.67;7.13;;;;;;;;;;4986538;28;20040;-61
2022/01/20 14:11:20;;;;;;;42.42;8.18;;;;;;;;;;4995997;28;20046;-60
2022/01/20 14:13:46;;;;;;;24.73;5.93;;;;;;;;;;5000639;28;20026;-61
2022/01/20 14:16:12;;;;;;;35.53;7.30;;;;;;;;;;4997536;28;20045;-60
2022/01/20 14:18:45;;;;;;;52.30;8.75;;;;;;;;;;5001941;28;20068;-61
2022/01/20 14:21:15;;;;;;;29.98;7.18;;;;;;;;;;4998235;28;20686;-60
2022/01/20 14:23:41;;;;;;;30.98;6.18;;;;;;;;;;5000343;28;20125;-60
2022/01/20 14:26:08;;;;;;;38.13;5.88;;;;;;;;;;5002924;28;20559;-60
2022/01/20 14:28:34;;;;;;;28.17;6.28;;;;;;;;;;4997526;28;20027;-61
2022/01/20 14:31:00;;;;;;;47.53;8.30;;;;;;;;;;4999699;28;20022;-61
2022/01/20 14:33:26;;;;;;;43.10;9.00;;;;;;;;;;5001868;28;20036;-61
2022/01/20 14:35:52;;;;;;;44.97;7.80;;;;;;;;;;5001806;28;20146;-60
2022/01/20 14:38:18;;;;;;;31.98;6.97;;;;;;;;;;5000500;28;20037;-59
2022/01/20 14:40:45;;;;;;;44.92;8.35;;;;;;;;;;5002316;28;20057;-57
2022/01/20 14:43:10;;;;;;;38.88;6.15;;;;;;;;;;5003231;28;20326;-55
2022/01/20 14:45:36;;;;;;;30.92;6.25;;;;;;;;;;5002707;28;20093;-56
2022/01/20 14:48:02;;;;;;;32.00;5.97;;;;;;;;;;4998559;28;20038;-58
2022/01/20 14:50:28;;;;;;;34.92;6.85;;;;;;;;;;4997601;28;20129;-56
2022/01/20 14:52:55;;;;;;;28.52;6.45;;;;;;;;;;4999923;28;20539;-56
2022/01/20 14:55:21;;;;;;;35.25;6.00;;;;;;;;;;4998686;28;20053;-58
2022/01/20 14:57:47;;;;;;;33.50;6.07;;;;;;;;;;4998529;28;20030;-57
2022/01/20 15:00:15;;;;;;;32.75;7.13;;;;;;;;;;5008638;28;20648;-58
2022/01/20 15:02:45;;;;;;;28.25;7.20;;;;;;;;;;5005874;28;20377;-58
2022/01/20 15:05:12;;;;;;;30.02;6.22;;;;;;;;;;4999048;28;20845;-58
2022/01/20 15:07:38;;;;;;;35.72;7.20;;;;;;;;;;5005196;28;20053;-58
2022/01/20 15:10:05;;;;;;;35.97;6.93;;;;;;;;;;4999809;28;20030;-58
2022/01/20 15:12:32;;;;;;;38.30;7.50;;;;;;;;;;5001357;28;20724;-59
2022/01/20 15:14:58;;;;;;;27.17;6.30;;;;;;;;;;5002259;28;20037;-58
2022/01/20 15:17:23;;;;;;;29.95;6.97;;;;;;;;;;5002559;28;20021;-57
2022/01/20 15:19:49;;;;;;;30.17;7.38;;;;;;;;;;5003936;28;20549;-58
2022/01/20 15:22:15;;;;;;;34.20;7.95;;;;;;;;;;5000557;28;20039;-58
2022/01/20 15:24:40;;;;;;;33.30;7.30;;;;;;;;;;4998749;28;20454;-58
2022/01/20 15:27:06;;;;;;;32.85;7.43;;;;;;;;;;5005090;28;20038;-59
2022/01/20 15:29:32;;;;;;;50.42;7.88;;;;;;;;;;5003023;28;20035;-59
2022/01/20 15:31:57;;;;;;;35.00;6.80;;;;;;;;;;5004048;28;20038;-59
2022/01/20 15:34:23;;;;;;;38.70;6.57;;;;;;;;;;4999337;28;20050;-58
2022/01/20 15:36:49;;;;;;;33.65;7.55;;;;;;;;;;4999838;28;20034;-59
2022/01/20 15:39:15;;;;;;;45.00;8.15;;;;;;;;;;5001783;28;20052;-59